createdAt,value
2019-02-19T00:00:33.903Z,16.93
2019-02-19T00:03:07.205Z,18.47
2019-02-19T00:05:40.493Z,17.27
2019-02-19T00:08:13.753Z,20.77
2019-02-19T00:10:47.070Z,16.53
2019-02-19T00:13:20.373Z,19.93
2019-02-19T00:15:53.683Z,17.57
2019-02-19T00:18:26.958Z,18.17
2019-02-19T00:21:00.258Z,19.27
2019-02-19T00:23:35.075Z,16.53
2019-02-19T00:26:13.146Z,19.10
2019-02-19T00:28:46.446Z,18.23
2019-02-19T00:31:19.741Z,18.33
2019-02-19T00:33:55.126Z,16.90
2019-02-19T00:36:28.419Z,18.33
2019-02-19T00:39:01.721Z,16.73
2019-02-19T00:41:35.026Z,17.33
2019-02-19T00:44:08.318Z,16.13
2019-02-19T00:46:41.614Z,16.50
2019-02-19T00:49:14.898Z,20.27
2019-02-19T00:51:48.198Z,18.27
2019-02-19T00:54:21.481Z,18.40
2019-02-19T00:56:54.784Z,17.67
2019-02-19T00:59:28.070Z,15.50
2019-02-19T01:02:01.386Z,18.83
2019-02-19T01:04:34.669Z,13.43
2019-02-19T01:07:08.015Z,16.20
2019-02-19T01:09:41.295Z,16.30
2019-02-19T01:12:14.674Z,17.67
2019-02-19T01:14:47.964Z,16.63
2019-02-19T01:17:21.244Z,14.63
2019-02-19T01:19:54.548Z,17.03
2019-02-19T01:22:27.842Z,14.90
2019-02-19T01:25:01.713Z,15.53
2019-02-19T01:27:34.990Z,15.60
2019-02-19T01:30:10.148Z,15.97
2019-02-19T01:32:43.428Z,17.70
2019-02-19T01:35:16.725Z,17.27
2019-02-19T01:37:50.014Z,18.57
2019-02-19T01:40:23.378Z,14.70
2019-02-19T01:42:57.718Z,13.87
2019-02-19T01:45:34.283Z,13.57
2019-02-19T01:48:07.751Z,17.57
2019-02-19T01:50:41.045Z,16.43
2019-02-19T01:53:14.158Z,12.37
2019-02-19T01:55:47.454Z,14.30
2019-02-19T01:58:21.723Z,16.00
2019-02-19T02:00:55.038Z,14.83
2019-02-19T02:03:28.320Z,13.63
2019-02-19T02:06:02.653Z,13.37
2019-02-19T02:08:35.930Z,16.47
2019-02-19T02:11:09.231Z,13.77
2019-02-19T02:13:44.062Z,12.33
2019-02-19T02:16:17.372Z,17.43
2019-02-19T02:18:50.657Z,13.53
2019-02-19T02:21:23.955Z,14.53
2019-02-19T02:23:57.218Z,14.37
2019-02-19T02:26:32.833Z,12.10
2019-02-19T02:29:06.108Z,15.93
2019-02-19T02:31:39.402Z,18.43
2019-02-19T02:34:14.200Z,12.63
2019-02-19T02:36:47.500Z,15.00
2019-02-19T02:39:21.441Z,15.80
2019-02-19T02:41:54.746Z,15.50
2019-02-19T02:44:29.138Z,13.17
2019-02-19T02:47:04.480Z,14.53
2019-02-19T02:49:37.757Z,14.50
2019-02-19T02:52:11.066Z,12.67
2019-02-19T02:54:44.325Z,11.13
2019-02-19T02:57:17.638Z,12.93
2019-02-19T02:59:50.915Z,12.50
2019-02-19T03:02:24.212Z,13.47
2019-02-19T03:04:57.494Z,11.30
2019-02-19T03:07:32.427Z,12.80
2019-02-19T03:10:06.485Z,12.63
2019-02-19T03:12:39.866Z,13.87
2019-02-19T03:15:13.512Z,13.13
2019-02-19T03:17:46.812Z,14.77
2019-02-19T03:20:20.086Z,13.93
2019-02-19T03:22:53.399Z,14.00
2019-02-19T03:25:26.687Z,12.27
2019-02-19T03:27:59.976Z,13.53
2019-02-19T03:30:33.280Z,12.23
2019-02-19T03:33:06.601Z,13.07
2019-02-19T03:35:40.160Z,14.23
2019-02-19T03:38:13.496Z,17.00
2019-02-19T03:40:46.738Z,10.63
2019-02-19T03:43:20.045Z,15.40
2019-02-19T03:45:53.331Z,13.17
2019-02-19T03:48:26.692Z,11.10
2019-02-19T03:50:59.989Z,12.57
2019-02-19T03:53:33.289Z,15.20
2019-02-19T03:56:06.631Z,16.67
2019-02-19T03:58:39.953Z,13.03
2019-02-19T04:01:13.274Z,10.90
2019-02-19T04:03:46.645Z,11.37
2019-02-19T04:06:19.911Z,12.93
2019-02-19T04:08:53.211Z,11.47
2019-02-19T04:11:26.506Z,13.30
2019-02-19T04:13:59.832Z,12.43
2019-02-19T04:16:33.112Z,14.43
2019-02-19T04:19:06.413Z,10.83
2019-02-19T04:21:39.692Z,11.70
2019-02-19T04:24:12.813Z,12.37
2019-02-19T04:26:46.102Z,11.10
2019-02-19T04:29:19.402Z,15.40
2019-02-19T04:31:52.690Z,14.43
2019-02-19T04:34:25.987Z,14.73
2019-02-19T04:36:59.314Z,14.90
2019-02-19T04:39:32.609Z,12.00
2019-02-19T04:42:05.885Z,13.53
2019-02-19T04:44:39.168Z,12.23
2019-02-19T04:47:12.453Z,12.17
2019-02-19T04:49:45.755Z,11.63
2019-02-19T04:52:18.877Z,15.47
2019-02-19T04:54:52.178Z,12.57
2019-02-19T04:57:26.028Z,14.17
2019-02-19T04:59:59.296Z,14.87
2019-02-19T05:02:32.613Z,13.83
2019-02-19T05:05:06.545Z,14.03
2019-02-19T05:07:39.841Z,13.07
2019-02-19T05:10:13.223Z,16.60
2019-02-19T05:12:46.532Z,18.87
2019-02-19T05:15:20.384Z,15.17
2019-02-19T05:17:53.652Z,15.83
2019-02-19T05:20:26.962Z,12.50
2019-02-19T05:23:00.228Z,13.43
2019-02-19T05:25:33.533Z,11.13
2019-02-19T05:28:08.030Z,9.20
2019-02-19T05:30:43.169Z,12.63
2019-02-19T05:33:16.722Z,10.53
2019-02-19T05:35:50.001Z,11.20
2019-02-19T05:38:23.303Z,13.83
2019-02-19T05:40:57.811Z,11.93
2019-02-19T05:43:31.098Z,9.70
2019-02-19T05:46:04.420Z,10.07
2019-02-19T05:48:37.713Z,11.37
2019-02-19T05:51:11.017Z,10.50
2019-02-19T05:53:45.936Z,9.23
2019-02-19T05:56:19.223Z,12.17
2019-02-19T05:58:52.516Z,10.57
2019-02-19T06:01:25.825Z,11.53
2019-02-19T06:03:59.220Z,10.30
2019-02-19T06:06:33.273Z,13.97
2019-02-19T06:09:06.630Z,15.00
2019-02-19T06:11:39.992Z,15.53
2019-02-19T06:14:13.385Z,9.90
2019-02-19T06:16:46.679Z,11.20
2019-02-19T06:19:21.291Z,9.43
2019-02-19T06:21:54.659Z,10.63
2019-02-19T06:24:27.983Z,12.40
2019-02-19T06:27:01.280Z,10.53
2019-02-19T06:29:34.566Z,12.80
2019-02-19T06:32:07.878Z,10.13
2019-02-19T06:34:41.207Z,11.43
2019-02-19T06:37:14.516Z,19.27
2019-02-19T06:39:47.811Z,10.30
2019-02-19T06:42:21.091Z,9.77
2019-02-19T06:44:54.403Z,9.60
2019-02-19T06:47:27.687Z,11.33
2019-02-19T06:50:00.987Z,10.43
2019-02-19T06:52:34.264Z,11.73
2019-02-19T06:55:08.250Z,12.37
2019-02-19T06:57:41.520Z,12.67
2019-02-19T07:00:14.895Z,12.43
2019-02-19T07:02:50.151Z,12.10
2019-02-19T07:05:25.032Z,11.80
2019-02-19T07:07:58.311Z,9.87
2019-02-19T07:10:31.603Z,9.97
2019-02-19T07:13:04.871Z,13.00
2019-02-19T07:15:38.433Z,12.00
2019-02-19T07:18:11.734Z,10.17
2019-02-19T07:20:44.998Z,8.87
2019-02-19T07:23:18.310Z,10.30
2019-02-19T07:25:51.604Z,13.53
2019-02-19T07:28:24.890Z,12.63
2019-02-19T07:30:58.256Z,10.03
2019-02-19T07:33:31.531Z,11.00
2019-02-19T07:36:04.904Z,13.33
2019-02-19T07:38:38.181Z,9.80
2019-02-19T07:41:11.481Z,11.33
2019-02-19T07:43:44.894Z,15.47
2019-02-19T07:46:18.224Z,14.23
2019-02-19T07:48:51.515Z,16.10
2019-02-19T07:51:24.815Z,11.10
2019-02-19T07:53:58.088Z,13.30
2019-02-19T07:56:31.375Z,13.90
2019-02-19T07:59:04.657Z,12.47
2019-02-19T08:01:37.938Z,12.27
2019-02-19T08:04:11.242Z,9.67
2019-02-19T08:06:44.534Z,9.87
2019-02-19T08:09:17.818Z,10.70
2019-02-19T08:11:52.642Z,11.63
2019-02-19T08:14:25.948Z,10.93
2019-02-19T08:16:59.291Z,10.53
2019-02-19T08:19:32.574Z,14.53
2019-02-19T08:22:05.865Z,12.63
2019-02-19T08:24:39.159Z,10.80
2019-02-19T08:27:12.448Z,9.70
2019-02-19T08:29:45.719Z,14.57
2019-02-19T08:32:19.000Z,15.63
2019-02-19T08:34:52.280Z,13.30
2019-02-19T08:37:25.566Z,11.40
2019-02-19T08:39:58.829Z,12.93
2019-02-19T08:42:32.125Z,14.10
2019-02-19T08:45:07.424Z,16.77
2019-02-19T08:47:42.857Z,15.50
2019-02-19T08:50:15.769Z,11.53
2019-02-19T08:52:49.068Z,11.90
2019-02-19T08:55:22.340Z,12.10
2019-02-19T08:57:55.637Z,12.77
2019-02-19T09:00:29.422Z,10.67
2019-02-19T09:03:02.740Z,12.00
2019-02-19T09:05:36.018Z,10.77
2019-02-19T09:08:09.388Z,10.93
2019-02-19T09:10:42.668Z,13.37
2019-02-19T09:13:15.968Z,12.33
2019-02-19T09:15:49.248Z,12.60
2019-02-19T09:18:24.108Z,10.37
2019-02-19T09:20:57.409Z,13.37
2019-02-19T09:23:30.739Z,12.20
2019-02-19T09:26:04.003Z,11.07
2019-02-19T09:28:37.303Z,12.73
2019-02-19T09:31:10.584Z,14.30
2019-02-19T09:33:43.910Z,11.87
2019-02-19T09:36:17.178Z,12.43
2019-02-19T09:38:50.499Z,12.27
2019-02-19T09:41:23.776Z,11.80
2019-02-19T09:43:57.066Z,11.67
2019-02-19T09:46:30.349Z,11.90
2019-02-19T09:49:03.650Z,11.30
2019-02-19T09:51:36.952Z,12.03
2019-02-19T09:54:10.274Z,15.00
2019-02-19T09:56:43.556Z,11.90
2019-02-19T09:59:16.833Z,12.93
2019-02-19T10:01:50.105Z,11.17
2019-02-19T10:04:23.397Z,12.07
2019-02-19T10:06:56.689Z,14.00
2019-02-19T10:09:29.979Z,13.70
2019-02-19T10:12:03.259Z,17.03
2019-02-19T10:14:36.563Z,11.47
2019-02-19T10:17:09.831Z,12.03
2019-02-19T10:19:43.130Z,14.10
2019-02-19T10:22:16.400Z,17.10
2019-02-19T10:24:49.695Z,15.73
2019-02-19T10:27:22.980Z,12.27
2019-02-19T10:29:56.262Z,18.00
2019-02-19T10:32:31.931Z,14.97
2019-02-19T10:35:06.816Z,13.67
2019-02-19T10:37:40.760Z,13.73
2019-02-19T10:40:18.919Z,13.70
2019-02-19T10:42:52.281Z,17.87
2019-02-19T10:45:27.230Z,16.37
2019-02-19T10:48:02.095Z,13.87
2019-02-19T10:50:35.360Z,15.03
2019-02-19T10:53:08.685Z,18.07
2019-02-19T10:55:42.512Z,17.10
2019-02-19T10:58:22.515Z,16.83
2019-02-19T11:00:51.945Z,12.47
2019-02-19T11:03:25.249Z,13.07
2019-02-19T11:05:58.558Z,15.67
2019-02-19T11:08:31.829Z,12.90
2019-02-19T11:11:05.125Z,10.97
2019-02-19T11:13:38.424Z,14.67
2019-02-19T11:16:11.721Z,18.30
2019-02-19T11:18:45.020Z,13.67
2019-02-19T11:21:20.010Z,13.97
2019-02-19T11:23:53.447Z,14.97
2019-02-19T11:26:26.751Z,16.03
2019-02-19T11:29:00.031Z,11.90
2019-02-19T11:31:33.331Z,12.00
2019-02-19T11:34:06.606Z,17.13
2019-02-19T11:36:39.883Z,12.57
2019-02-19T11:39:14.054Z,15.07
2019-02-19T11:41:47.371Z,16.33
2019-02-19T11:44:20.657Z,14.30
2019-02-19T11:46:53.973Z,13.50
2019-02-19T11:49:27.255Z,12.27
2019-02-19T11:52:00.807Z,13.20
2019-02-19T11:54:34.075Z,14.00
2019-02-19T11:57:07.384Z,12.80
2019-02-19T11:59:40.678Z,16.23
2019-02-19T12:02:15.644Z,11.30
2019-02-19T12:04:48.944Z,11.23
2019-02-19T12:07:22.311Z,14.63
2019-02-19T12:09:55.655Z,15.37
2019-02-19T12:12:28.892Z,12.20
2019-02-19T12:15:02.211Z,13.33
2019-02-19T12:17:35.497Z,15.87
2019-02-19T12:20:13.265Z,11.13
2019-02-19T12:22:46.610Z,11.80
2019-02-19T12:25:19.921Z,12.53
2019-02-19T12:27:53.266Z,11.33
2019-02-19T12:30:26.554Z,11.03
2019-02-19T12:32:59.838Z,10.10
2019-02-19T12:35:33.133Z,13.20
2019-02-19T12:38:06.419Z,11.90
2019-02-19T12:40:39.726Z,9.23
2019-02-19T12:43:13.360Z,9.03
2019-02-19T12:45:46.779Z,7.87
2019-02-19T12:48:20.069Z,8.50
2019-02-19T12:50:53.832Z,12.63
2019-02-19T12:53:27.113Z,8.07
2019-02-19T12:56:00.397Z,9.27
2019-02-19T12:58:33.659Z,7.13
2019-02-19T13:01:08.627Z,6.60
2019-02-19T13:03:41.908Z,8.67
2019-02-19T13:06:15.202Z,5.77
2019-02-19T13:08:48.467Z,6.77
2019-02-19T13:11:21.786Z,5.20
2019-02-19T13:13:55.171Z,5.13
2019-02-19T13:16:28.481Z,5.10
2019-02-19T13:19:03.732Z,5.93
2019-02-19T13:21:37.167Z,5.33
2019-02-19T13:24:10.450Z,10.17
2019-02-19T13:26:43.766Z,9.27
2019-02-19T13:29:17.047Z,10.87
2019-02-19T13:31:50.358Z,6.80
2019-02-19T13:34:23.670Z,11.03
2019-02-19T13:36:56.960Z,2.37
2019-02-19T13:39:30.266Z,3.17
2019-02-19T13:42:03.561Z,2.67
2019-02-19T13:44:36.845Z,2.13
2019-02-19T13:47:10.394Z,1.93
2019-02-19T13:49:44.933Z,2.97
2019-02-19T13:52:22.546Z,2.63
2019-02-19T13:54:55.298Z,3.50
2019-02-19T13:57:28.572Z,3.80
2019-02-19T14:00:01.877Z,2.10
2019-02-19T14:02:35.157Z,3.40
2019-02-19T14:05:08.808Z,3.77
2019-02-19T14:07:42.111Z,5.30
2019-02-19T14:10:15.410Z,4.23
2019-02-19T14:12:48.764Z,6.37
2019-02-19T14:15:42.108Z,4.27
2019-02-19T14:18:17.048Z,3.23
2019-02-19T14:20:51.981Z,4.00
2019-02-19T14:23:43.336Z,4.43
2019-02-19T14:26:18.235Z,2.53
2019-02-19T14:29:02.377Z,3.77
2019-02-19T14:31:48.974Z,3.23
2019-02-19T14:34:29.722Z,4.57
2019-02-19T14:37:13.438Z,4.53
2019-02-19T14:39:50.826Z,4.43
2019-02-19T14:42:41.642Z,5.90
2019-02-19T14:45:28.523Z,6.20
2019-02-19T14:48:09.163Z,6.13
2019-02-19T14:50:47.060Z,5.03
2019-02-19T14:53:34.132Z,4.47
2019-02-19T14:56:12.149Z,5.17
2019-02-19T14:59:03.213Z,5.03
2019-02-19T15:01:54.310Z,6.23
2019-02-19T15:04:31.926Z,7.63
2019-02-19T15:07:09.770Z,3.53
2019-02-19T15:09:47.421Z,6.70
2019-02-19T15:12:28.383Z,6.00
2019-02-19T15:15:04.649Z,5.10
2019-02-19T15:17:39.566Z,4.93
2019-02-19T15:20:30.938Z,4.43
2019-02-19T15:23:12.094Z,5.80
2019-02-19T15:25:49.709Z,4.40
2019-02-19T15:28:36.590Z,3.63
2019-02-19T15:31:26.533Z,2.70
2019-02-19T15:34:07.172Z,3.70
2019-02-19T15:36:58.556Z,5.23
2019-02-19T15:39:36.168Z,3.30
2019-02-19T15:42:13.762Z,3.53
2019-02-19T15:44:48.698Z,3.67
2019-02-19T15:47:38.679Z,3.77
2019-02-19T15:50:29.699Z,4.07
2019-02-19T15:53:07.423Z,6.13
2019-02-19T15:55:58.787Z,3.90
2019-02-19T15:58:33.795Z,5.13
2019-02-19T16:01:26.454Z,6.87
2019-02-19T16:04:04.386Z,4.13
2019-02-19T16:06:55.213Z,4.57
2019-02-19T16:09:41.959Z,3.33
2019-02-19T16:12:16.899Z,8.23
2019-02-19T16:15:06.690Z,4.63
2019-02-19T16:17:47.538Z,5.43
2019-02-19T16:20:28.439Z,4.93
2019-02-19T16:23:06.379Z,4.17
2019-02-19T16:25:53.152Z,5.47
2019-02-19T16:28:34.264Z,2.77
2019-02-19T16:31:09.176Z,5.83
2019-02-19T16:33:49.891Z,2.77
2019-02-19T16:36:24.806Z,5.07
2019-02-19T16:39:17.504Z,4.93
2019-02-19T16:41:52.440Z,3.93
2019-02-19T16:44:30.396Z,4.63
2019-02-19T16:47:14.216Z,4.47
2019-02-19T16:50:08.067Z,3.13
2019-02-19T16:52:42.406Z,8.83
2019-02-19T16:55:20.180Z,21.10
2019-02-19T16:57:55.119Z,10.10
2019-02-19T17:00:39.039Z,12.23
2019-02-19T17:03:22.818Z,8.30
2019-02-19T17:06:03.528Z,7.83
2019-02-19T17:08:50.270Z,14.37
2019-02-19T17:11:34.768Z,37.80
2019-02-19T17:14:33.679Z,24.73
2019-02-19T17:17:17.720Z,5.53
2019-02-19T17:19:55.027Z,8.87
2019-02-19T17:22:30.045Z,6.03
2019-02-19T17:25:08.397Z,6.73
2019-02-19T17:27:43.326Z,7.60
2019-02-19T17:30:21.005Z,8.17
2019-02-19T17:33:04.624Z,11.03
2019-02-19T17:35:48.514Z,13.27
2019-02-19T17:38:35.160Z,6.40
2019-02-19T17:41:12.846Z,4.33
2019-02-19T17:43:56.863Z,5.50
2019-02-19T17:46:44.044Z,4.20
2019-02-19T17:49:30.947Z,6.90
2019-02-19T17:52:21.801Z,5.13
2019-02-19T17:54:56.715Z,6.30
2019-02-19T17:57:37.613Z,5.80
2019-02-19T18:00:25.285Z,4.77
2019-02-19T18:03:09.390Z,5.83
2019-02-19T18:06:00.438Z,7.27
2019-02-19T18:08:41.138Z,9.00
2019-02-19T18:11:18.520Z,8.50
2019-02-19T18:13:56.517Z,8.70
2019-02-19T18:16:40.302Z,5.40
2019-02-19T18:19:13.614Z,7.37
2019-02-19T18:21:46.904Z,6.83
2019-02-19T18:24:21.552Z,6.50
2019-02-19T18:26:55.013Z,5.00
2019-02-19T18:29:28.332Z,4.70
2019-02-19T18:32:01.609Z,6.97
2019-02-19T18:34:34.941Z,5.93
2019-02-19T18:37:08.202Z,6.73
2019-02-19T18:39:41.609Z,6.10
2019-02-19T18:42:14.893Z,5.80
2019-02-19T18:44:48.225Z,6.47
2019-02-19T18:47:21.504Z,8.10
2019-02-19T18:49:55.882Z,4.00
2019-02-19T18:52:29.147Z,6.93
2019-02-19T18:55:02.527Z,11.17
2019-02-19T18:57:35.808Z,6.67
2019-02-19T19:00:13.365Z,7.63
2019-02-19T19:02:46.724Z,6.43
2019-02-19T19:05:20.145Z,14.63
2019-02-19T19:07:53.406Z,9.27
2019-02-19T19:10:26.724Z,8.40
2019-02-19T19:13:00.171Z,7.33
2019-02-19T19:15:33.562Z,10.37
2019-02-19T19:18:06.947Z,8.47
2019-02-19T19:20:40.617Z,7.53
2019-02-19T19:23:13.916Z,7.03
2019-02-19T19:25:47.199Z,6.73
2019-02-19T19:28:20.492Z,7.63
2019-02-19T19:30:53.819Z,9.73
2019-02-19T19:33:27.135Z,10.27
2019-02-19T19:36:00.521Z,7.17
2019-02-19T19:38:33.843Z,10.47
2019-02-19T19:41:08.760Z,6.23
2019-02-19T19:43:42.024Z,7.07
2019-02-19T19:46:15.387Z,7.50
2019-02-19T19:48:48.660Z,7.83
2019-02-19T19:51:22.101Z,7.83
2019-02-19T19:53:55.395Z,7.67
2019-02-19T19:56:28.829Z,13.23
2019-02-19T19:59:02.126Z,12.80
2019-02-19T20:01:35.535Z,10.43
2019-02-19T20:04:08.912Z,10.30
2019-02-19T20:06:42.429Z,10.73
2019-02-19T20:09:16.009Z,10.93
2019-02-19T20:11:49.316Z,11.93
2019-02-19T20:14:22.743Z,10.10
2019-02-19T20:16:56.070Z,11.27
2019-02-19T20:19:29.404Z,16.17
2019-02-19T20:22:03.170Z,16.97
2019-02-19T20:24:38.019Z,14.97
2019-02-19T20:27:11.347Z,16.77
2019-02-19T20:29:45.639Z,17.40
2019-02-19T20:32:18.942Z,15.63
2019-02-19T20:34:52.611Z,17.53
2019-02-19T20:37:26.437Z,15.60
2019-02-19T20:39:59.729Z,16.53
2019-02-19T20:42:33.042Z,16.97
2019-02-19T20:45:13.094Z,15.07
2019-02-19T20:47:46.390Z,17.90
2019-02-19T20:50:19.711Z,17.67
2019-02-19T20:52:53.003Z,17.23
2019-02-19T20:55:26.785Z,17.77
2019-02-19T20:58:00.087Z,21.53
2019-02-19T21:00:33.572Z,19.13
2019-02-19T21:03:06.907Z,23.53
2019-02-19T21:05:40.244Z,29.70
2019-02-19T21:08:13.519Z,25.70
2019-02-19T21:10:47.180Z,28.27
2019-02-19T21:13:20.583Z,23.60
2019-02-19T21:15:53.910Z,22.90
2019-02-19T21:18:27.185Z,21.87
2019-02-19T21:21:00.475Z,24.70
2019-02-19T21:23:33.784Z,22.03
2019-02-19T21:26:07.160Z,22.30
2019-02-19T21:28:40.466Z,20.17
2019-02-19T21:31:13.785Z,19.60
2019-02-19T21:33:47.105Z,18.27
2019-02-19T21:36:20.245Z,20.67
2019-02-19T21:38:53.522Z,20.77
2019-02-19T21:41:26.820Z,21.73
2019-02-19T21:44:00.125Z,20.20
2019-02-19T21:46:33.406Z,20.60
2019-02-19T21:49:07.533Z,22.03
2019-02-19T21:51:40.854Z,23.80
2019-02-19T21:54:14.155Z,20.80
2019-02-19T21:56:47.463Z,21.67
2019-02-19T21:59:20.766Z,20.97
2019-02-19T22:01:54.147Z,21.10
2019-02-19T22:04:27.452Z,21.00
2019-02-19T22:07:01.373Z,20.93
2019-02-19T22:09:34.670Z,23.03
2019-02-19T22:12:09.187Z,27.17
2019-02-19T22:14:42.477Z,23.13
2019-02-19T22:17:15.800Z,23.30
2019-02-19T22:19:49.070Z,25.80
2019-02-19T22:22:22.379Z,24.20
2019-02-19T22:24:55.672Z,25.50
2019-02-19T22:27:28.962Z,25.50
2019-02-19T22:30:02.268Z,21.37
2019-02-19T22:32:35.593Z,21.07
2019-02-19T22:35:08.946Z,23.17
2019-02-19T22:37:42.259Z,23.47
2019-02-19T22:40:15.525Z,23.10
2019-02-19T22:42:48.830Z,22.67
2019-02-19T22:45:22.104Z,27.23
2019-02-19T22:47:55.427Z,33.13
2019-02-19T22:50:28.715Z,27.37
2019-02-19T22:53:03.665Z,29.90
2019-02-19T22:55:51.713Z,27.83
2019-02-19T22:58:25.236Z,27.23
2019-02-19T23:01:03.563Z,29.03
2019-02-19T23:03:37.735Z,34.20
2019-02-19T23:06:11.027Z,25.20
2019-02-19T23:08:44.342Z,26.10
2019-02-19T23:11:18.208Z,24.27
2019-02-19T23:13:51.483Z,24.80
2019-02-19T23:16:24.760Z,28.97
2019-02-19T23:18:58.078Z,29.83
2019-02-19T23:21:32.579Z,27.60
2019-02-19T23:24:05.861Z,29.80
2019-02-19T23:26:39.133Z,26.37
2019-02-19T23:29:12.430Z,27.03
2019-02-19T23:31:45.704Z,27.13
2019-02-19T23:34:18.994Z,32.40
2019-02-19T23:36:53.910Z,26.43
2019-02-19T23:39:27.218Z,32.53
2019-02-19T23:42:00.489Z,27.80
2019-02-19T23:44:33.767Z,39.10
2019-02-19T23:47:07.113Z,36.23
2019-02-19T23:49:40.412Z,33.80
2019-02-19T23:52:13.694Z,33.33
2019-02-19T23:54:46.999Z,28.70
2019-02-19T23:57:20.273Z,29.90
2019-02-19T23:59:53.594Z,30.53
